sensor_id;sensor_type;location;lat;lon;timestamp;P1;durP1;ratioP1;P2;durP2;ratioP2
23555;SDS011;11956;53.184;8.578;2022-07-03T00:00:54;2.60;;;1.10;;
23555;SDS011;11956;53.184;8.578;2022-07-03T00:03:55;2.33;;;1.25;;
23555;SDS011;11956;53.184;8.578;2022-07-03T00:06:56;3.45;;;1.20;;
23555;SDS011;11956;53.184;8.578;2022-07-03T00:09:57;2.28;;;1.20;;
23555;SDS011;11956;53.184;8.578;2022-07-03T00:12:58;2.30;;;1.30;;
23555;SDS011;11956;53.184;8.578;2022-07-03T00:15:59;4.57;;;1.30;;
23555;SDS011;11956;53.184;8.578;2022-07-03T00:19:00;2.10;;;1.20;;
23555;SDS011;11956;53.184;8.578;2022-07-03T00:22:05;3.20;;;1.20;;
23555;SDS011;11956;53.184;8.578;2022-07-03T00:25:12;3.30;;;1.35;;
23555;SDS011;11956;53.184;8.578;2022-07-03T00:28:13;1.58;;;1.02;;
23555;SDS011;11956;53.184;8.578;2022-07-03T00:31:14;3.90;;;1.60;;
23555;SDS011;11956;53.184;8.578;2022-07-03T00:34:16;2.10;;;1.00;;
23555;SDS011;11956;53.184;8.578;2022-07-03T00:37:19;4.50;;;1.13;;
23555;SDS011;11956;53.184;8.578;2022-07-03T00:40:21;2.05;;;1.00;;
23555;SDS011;11956;53.184;8.578;2022-07-03T00:43:22;2.95;;;1.30;;
23555;SDS011;11956;53.184;8.578;2022-07-03T00:46:26;3.47;;;1.00;;
23555;SDS011;11956;53.184;8.578;2022-07-03T00:49:28;2.58;;;1.10;;
23555;SDS011;11956;53.184;8.578;2022-07-03T00:52:31;1.23;;;1.00;;
23555;SDS011;11956;53.184;8.578;2022-07-03T00:55:33;2.70;;;1.10;;
23555;SDS011;11956;53.184;8.578;2022-07-03T00:58:37;2.47;;;1.27;;
23555;SDS011;11956;53.184;8.578;2022-07-03T01:01:39;2.65;;;1.30;;
23555;SDS011;11956;53.184;8.578;2022-07-03T01:04:45;2.35;;;0.85;;
23555;SDS011;11956;53.184;8.578;2022-07-03T01:18:13;1.83;;;1.27;;
23555;SDS011;11956;53.184;8.578;2022-07-03T01:28:36;2.72;;;1.50;;
23555;SDS011;11956;53.184;8.578;2022-07-03T01:31:41;2.20;;;1.58;;
23555;SDS011;11956;53.184;8.578;2022-07-03T01:34:44;4.30;;;1.87;;
23555;SDS011;11956;53.184;8.578;2022-07-03T01:37:52;3.40;;;1.83;;
23555;SDS011;11956;53.184;8.578;2022-07-03T01:40:55;5.03;;;1.70;;
23555;SDS011;11956;53.184;8.578;2022-07-03T01:44:00;4.13;;;1.77;;
23555;SDS011;11956;53.184;8.578;2022-07-03T01:47:04;2.45;;;1.77;;
23555;SDS011;11956;53.184;8.578;2022-07-03T01:50:06;2.22;;;1.60;;
23555;SDS011;11956;53.184;8.578;2022-07-03T01:53:12;1.75;;;1.50;;
23555;SDS011;11956;53.184;8.578;2022-07-03T01:56:14;4.38;;;2.00;;
23555;SDS011;11956;53.184;8.578;2022-07-03T01:59:17;2.47;;;1.80;;
23555;SDS011;11956;53.184;8.578;2022-07-03T02:08:55;3.22;;;1.80;;
23555;SDS011;11956;53.184;8.578;2022-07-03T02:12:05;3.95;;;2.03;;
23555;SDS011;11956;53.184;8.578;2022-07-03T02:15:13;3.72;;;2.00;;
23555;SDS011;11956;53.184;8.578;2022-07-03T02:18:34;3.80;;;2.50;;
23555;SDS011;11956;53.184;8.578;2022-07-03T02:21:37;3.13;;;2.08;;
23555;SDS011;11956;53.184;8.578;2022-07-03T02:24:47;2.83;;;2.35;;
23555;SDS011;11956;53.184;8.578;2022-07-03T02:28:03;3.33;;;2.10;;
23555;SDS011;11956;53.184;8.578;2022-07-03T02:31:27;2.63;;;2.28;;
23555;SDS011;11956;53.184;8.578;2022-07-03T02:34:34;3.58;;;2.55;;
23555;SDS011;11956;53.184;8.578;2022-07-03T02:37:41;2.35;;;2.15;;
23555;SDS011;11956;53.184;8.578;2022-07-03T02:44:27;3.33;;;2.30;;
23555;SDS011;11956;53.184;8.578;2022-07-03T02:47:46;4.43;;;2.40;;
23555;SDS011;11956;53.184;8.578;2022-07-03T02:50:59;4.68;;;2.50;;
23555;SDS011;11956;53.184;8.578;2022-07-03T02:54:09;2.97;;;2.40;;
23555;SDS011;11956;53.184;8.578;2022-07-03T02:57:16;3.83;;;2.67;;
23555;SDS011;11956;53.184;8.578;2022-07-03T03:00:22;2.72;;;2.22;;
23555;SDS011;11956;53.184;8.578;2022-07-03T03:03:26;4.25;;;2.60;;
23555;SDS011;11956;53.184;8.578;2022-07-03T03:06:29;5.68;;;2.67;;
23555;SDS011;11956;53.184;8.578;2022-07-03T03:09:54;3.47;;;2.45;;
23555;SDS011;11956;53.184;8.578;2022-07-03T03:12:58;3.75;;;2.45;;
23555;SDS011;11956;53.184;8.578;2022-07-03T03:16:08;4.55;;;2.90;;
23555;SDS011;11956;53.184;8.578;2022-07-03T03:19:11;5.25;;;3.05;;
23555;SDS011;11956;53.184;8.578;2022-07-03T03:22:16;3.63;;;2.90;;
23555;SDS011;11956;53.184;8.578;2022-07-03T03:25:48;5.20;;;2.90;;
23555;SDS011;11956;53.184;8.578;2022-07-03T03:28:52;4.22;;;2.33;;
23555;SDS011;11956;53.184;8.578;2022-07-03T03:31:54;3.75;;;2.58;;
23555;SDS011;11956;53.184;8.578;2022-07-03T03:34:55;4.38;;;2.72;;
23555;SDS011;11956;53.184;8.578;2022-07-03T03:37:56;3.58;;;2.63;;
23555;SDS011;11956;53.184;8.578;2022-07-03T03:40:57;4.93;;;2.83;;
23555;SDS011;11956;53.184;8.578;2022-07-03T03:43:59;4.53;;;2.70;;
23555;SDS011;11956;53.184;8.578;2022-07-03T03:47:00;5.50;;;2.95;;
23555;SDS011;11956;53.184;8.578;2022-07-03T03:50:02;5.85;;;2.67;;
23555;SDS011;11956;53.184;8.578;2022-07-03T03:53:03;4.60;;;2.75;;
23555;SDS011;11956;53.184;8.578;2022-07-03T03:56:09;3.33;;;2.55;;
23555;SDS011;11956;53.184;8.578;2022-07-03T03:59:15;2.55;;;1.98;;
23555;SDS011;11956;53.184;8.578;2022-07-03T04:02:16;4.57;;;2.15;;
23555;SDS011;11956;53.184;8.578;2022-07-03T04:05:18;2.88;;;1.98;;
23555;SDS011;11956;53.184;8.578;2022-07-03T04:11:24;2.97;;;1.92;;
23555;SDS011;11956;53.184;8.578;2022-07-03T04:14:26;2.58;;;1.50;;
23555;SDS011;11956;53.184;8.578;2022-07-03T04:17:27;2.35;;;1.70;;
23555;SDS011;11956;53.184;8.578;2022-07-03T04:20:28;3.00;;;1.73;;
23555;SDS011;11956;53.184;8.578;2022-07-03T04:23:34;3.83;;;1.92;;
23555;SDS011;11956;53.184;8.578;2022-07-03T04:26:35;3.25;;;1.98;;
23555;SDS011;11956;53.184;8.578;2022-07-03T04:29:36;1.70;;;1.60;;
23555;SDS011;11956;53.184;8.578;2022-07-03T04:32:37;3.75;;;2.17;;
23555;SDS011;11956;53.184;8.578;2022-07-03T04:35:38;2.67;;;2.00;;
23555;SDS011;11956;53.184;8.578;2022-07-03T04:38:40;4.20;;;2.00;;
23555;SDS011;11956;53.184;8.578;2022-07-03T04:42:39;2.72;;;1.95;;
23555;SDS011;11956;53.184;8.578;2022-07-03T04:45:41;3.72;;;1.92;;
23555;SDS011;11956;53.184;8.578;2022-07-03T04:48:42;4.78;;;2.05;;
23555;SDS011;11956;53.184;8.578;2022-07-03T04:51:43;2.53;;;1.80;;
23555;SDS011;11956;53.184;8.578;2022-07-03T04:54:44;3.00;;;1.90;;
23555;SDS011;11956;53.184;8.578;2022-07-03T04:57:45;3.28;;;2.10;;
23555;SDS011;11956;53.184;8.578;2022-07-03T05:00:47;3.28;;;2.30;;
23555;SDS011;11956;53.184;8.578;2022-07-03T05:03:52;2.42;;;2.00;;
23555;SDS011;11956;53.184;8.578;2022-07-03T05:07:52;3.22;;;2.03;;
23555;SDS011;11956;53.184;8.578;2022-07-03T05:12:09;4.55;;;2.60;;
23555;SDS011;11956;53.184;8.578;2022-07-03T05:15:18;4.40;;;2.20;;
23555;SDS011;11956;53.184;8.578;2022-07-03T05:23:52;3.67;;;1.92;;
23555;SDS011;11956;53.184;8.578;2022-07-03T05:32:55;2.50;;;1.60;;
23555;SDS011;11956;53.184;8.578;2022-07-03T05:37:34;2.45;;;1.60;;
23555;SDS011;11956;53.184;8.578;2022-07-03T05:45:10;3.85;;;1.88;;
23555;SDS011;11956;53.184;8.578;2022-07-03T05:48:30;2.95;;;1.50;;
23555;SDS011;11956;53.184;8.578;2022-07-03T05:55:30;3.00;;;1.70;;
23555;SDS011;11956;53.184;8.578;2022-07-03T05:58:31;2.75;;;1.70;;
23555;SDS011;11956;53.184;8.578;2022-07-03T06:01:32;4.72;;;1.50;;
23555;SDS011;11956;53.184;8.578;2022-07-03T06:04:33;2.80;;;1.60;;
23555;SDS011;11956;53.184;8.578;2022-07-03T06:07:34;1.70;;;1.50;;
23555;SDS011;11956;53.184;8.578;2022-07-03T06:10:35;2.58;;;1.42;;
23555;SDS011;11956;53.184;8.578;2022-07-03T06:13:36;2.17;;;1.70;;
23555;SDS011;11956;53.184;8.578;2022-07-03T06:16:36;3.58;;;1.50;;
23555;SDS011;11956;53.184;8.578;2022-07-03T06:19:37;2.35;;;1.80;;
23555;SDS011;11956;53.184;8.578;2022-07-03T06:22:39;2.90;;;1.45;;
23555;SDS011;11956;53.184;8.578;2022-07-03T06:25:40;2.30;;;1.50;;
23555;SDS011;11956;53.184;8.578;2022-07-03T06:28:41;3.65;;;2.00;;
23555;SDS011;11956;53.184;8.578;2022-07-03T06:31:43;2.53;;;1.80;;
23555;SDS011;11956;53.184;8.578;2022-07-03T06:34:43;4.80;;;1.60;;
23555;SDS011;11956;53.184;8.578;2022-07-03T06:37:44;3.38;;;1.50;;
23555;SDS011;11956;53.184;8.578;2022-07-03T06:40:45;2.28;;;1.48;;
23555;SDS011;11956;53.184;8.578;2022-07-03T06:43:46;2.47;;;1.50;;
23555;SDS011;11956;53.184;8.578;2022-07-03T06:46:47;2.47;;;1.55;;
23555;SDS011;11956;53.184;8.578;2022-07-03T06:49:48;2.55;;;1.17;;
23555;SDS011;11956;53.184;8.578;2022-07-03T06:52:49;2.60;;;1.73;;
23555;SDS011;11956;53.184;8.578;2022-07-03T06:55:50;2.13;;;1.27;;
23555;SDS011;11956;53.184;8.578;2022-07-03T06:58:51;3.97;;;1.77;;
23555;SDS011;11956;53.184;8.578;2022-07-03T07:01:52;7.07;;;1.88;;
23555;SDS011;11956;53.184;8.578;2022-07-03T07:04:53;3.50;;;1.25;;
23555;SDS011;11956;53.184;8.578;2022-07-03T07:07:54;3.88;;;1.40;;
23555;SDS011;11956;53.184;8.578;2022-07-03T07:10:54;4.13;;;1.75;;
23555;SDS011;11956;53.184;8.578;2022-07-03T07:13:55;3.72;;;1.70;;
23555;SDS011;11956;53.184;8.578;2022-07-03T07:16:57;2.85;;;1.50;;
23555;SDS011;11956;53.184;8.578;2022-07-03T07:19:58;2.92;;;1.50;;
23555;SDS011;11956;53.184;8.578;2022-07-03T07:22:59;4.18;;;1.40;;
23555;SDS011;11956;53.184;8.578;2022-07-03T07:26:00;3.55;;;1.90;;
23555;SDS011;11956;53.184;8.578;2022-07-03T07:29:01;2.78;;;1.00;;
23555;SDS011;11956;53.184;8.578;2022-07-03T07:32:02;2.10;;;0.98;;
23555;SDS011;11956;53.184;8.578;2022-07-03T07:35:03;2.50;;;0.98;;
23555;SDS011;11956;53.184;8.578;2022-07-03T07:38:05;2.00;;;1.25;;
23555;SDS011;11956;53.184;8.578;2022-07-03T07:41:06;4.50;;;1.30;;
23555;SDS011;11956;53.184;8.578;2022-07-03T07:44:07;1.98;;;1.08;;
23555;SDS011;11956;53.184;8.578;2022-07-03T07:47:08;2.22;;;1.23;;
23555;SDS011;11956;53.184;8.578;2022-07-03T07:50:09;2.08;;;0.90;;
23555;SDS011;11956;53.184;8.578;2022-07-03T07:53:10;2.78;;;1.15;;
23555;SDS011;11956;53.184;8.578;2022-07-03T07:56:12;2.40;;;1.10;;
23555;SDS011;11956;53.184;8.578;2022-07-03T07:59:13;3.17;;;1.00;;
23555;SDS011;11956;53.184;8.578;2022-07-03T08:02:13;3.55;;;1.30;;
23555;SDS011;11956;53.184;8.578;2022-07-03T08:05:33;3.67;;;1.27;;
23555;SDS011;11956;53.184;8.578;2022-07-03T08:08:37;2.33;;;1.02;;
23555;SDS011;11956;53.184;8.578;2022-07-03T08:11:38;3.50;;;1.17;;
23555;SDS011;11956;53.184;8.578;2022-07-03T08:14:39;2.90;;;1.10;;
23555;SDS011;11956;53.184;8.578;2022-07-03T08:17:40;3.97;;;1.30;;
23555;SDS011;11956;53.184;8.578;2022-07-03T08:20:41;4.90;;;1.00;;
23555;SDS011;11956;53.184;8.578;2022-07-03T08:23:42;2.55;;;0.93;;
23555;SDS011;11956;53.184;8.578;2022-07-03T08:26:43;1.85;;;0.80;;
23555;SDS011;11956;53.184;8.578;2022-07-03T08:29:44;1.90;;;0.88;;
23555;SDS011;11956;53.184;8.578;2022-07-03T08:32:45;2.25;;;0.80;;
23555;SDS011;11956;53.184;8.578;2022-07-03T08:35:48;4.00;;;1.00;;
23555;SDS011;11956;53.184;8.578;2022-07-03T08:38:49;3.42;;;1.00;;
23555;SDS011;11956;53.184;8.578;2022-07-03T08:41:50;3.88;;;0.90;;
23555;SDS011;11956;53.184;8.578;2022-07-03T08:44:53;2.08;;;0.70;;
23555;SDS011;11956;53.184;8.578;2022-07-03T08:47:59;1.90;;;0.65;;
23555;SDS011;11956;53.184;8.578;2022-07-03T08:51:02;1.60;;;0.70;;
23555;SDS011;11956;53.184;8.578;2022-07-03T08:54:03;3.75;;;0.80;;
23555;SDS011;11956;53.184;8.578;2022-07-03T08:57:06;3.65;;;0.65;;
23555;SDS011;11956;53.184;8.578;2022-07-03T09:00:08;1.88;;;0.70;;
23555;SDS011;11956;53.184;8.578;2022-07-03T09:03:14;2.05;;;0.70;;
23555;SDS011;11956;53.184;8.578;2022-07-03T09:06:15;2.00;;;0.77;;
23555;SDS011;11956;53.184;8.578;2022-07-03T09:09:17;2.40;;;0.52;;
23555;SDS011;11956;53.184;8.578;2022-07-03T09:12:18;2.10;;;0.60;;
23555;SDS011;11956;53.184;8.578;2022-07-03T09:15:19;1.95;;;0.60;;
23555;SDS011;11956;53.184;8.578;2022-07-03T09:18:41;1.95;;;0.80;;
23555;SDS011;11956;53.184;8.578;2022-07-03T09:21:44;0.98;;;0.60;;
23555;SDS011;11956;53.184;8.578;2022-07-03T09:24:53;2.33;;;0.52;;
23555;SDS011;11956;53.184;8.578;2022-07-03T09:28:03;1.15;;;0.50;;
23555;SDS011;11956;53.184;8.578;2022-07-03T09:31:04;3.15;;;0.70;;
23555;SDS011;11956;53.184;8.578;2022-07-03T09:34:05;1.13;;;0.50;;
23555;SDS011;11956;53.184;8.578;2022-07-03T09:37:10;2.03;;;0.60;;
23555;SDS011;11956;53.184;8.578;2022-07-03T09:40:25;2.70;;;0.80;;
23555;SDS011;11956;53.184;8.578;2022-07-03T09:43:30;2.63;;;0.80;;
23555;SDS011;11956;53.184;8.578;2022-07-03T09:46:31;3.15;;;0.80;;
23555;SDS011;11956;53.184;8.578;2022-07-03T09:49:45;5.15;;;0.80;;
23555;SDS011;11956;53.184;8.578;2022-07-03T09:53:05;3.50;;;0.60;;
23555;SDS011;11956;53.184;8.578;2022-07-03T09:56:05;1.45;;;0.70;;
23555;SDS011;11956;53.184;8.578;2022-07-03T09:59:13;2.42;;;0.70;;
23555;SDS011;11956;53.184;8.578;2022-07-03T10:02:15;3.20;;;0.63;;
23555;SDS011;11956;53.184;8.578;2022-07-03T10:05:16;2.75;;;0.70;;
23555;SDS011;11956;53.184;8.578;2022-07-03T10:08:17;1.13;;;0.70;;
23555;SDS011;11956;53.184;8.578;2022-07-03T10:11:19;2.03;;;0.70;;
23555;SDS011;11956;53.184;8.578;2022-07-03T10:14:20;1.63;;;0.90;;
23555;SDS011;11956;53.184;8.578;2022-07-03T10:17:24;3.42;;;0.60;;
23555;SDS011;11956;53.184;8.578;2022-07-03T10:20:35;2.15;;;0.50;;
23555;SDS011;11956;53.184;8.578;2022-07-03T10:23:50;1.60;;;0.43;;
23555;SDS011;11956;53.184;8.578;2022-07-03T10:26:51;2.22;;;0.50;;
23555;SDS011;11956;53.184;8.578;2022-07-03T10:29:53;3.50;;;0.80;;
23555;SDS011;11956;53.184;8.578;2022-07-03T10:32:55;0.68;;;0.47;;
23555;SDS011;11956;53.184;8.578;2022-07-03T10:35:56;1.90;;;0.97;;
23555;SDS011;11956;53.184;8.578;2022-07-03T10:38:58;2.40;;;0.90;;
23555;SDS011;11956;53.184;8.578;2022-07-03T10:42:05;1.88;;;1.13;;
23555;SDS011;11956;53.184;8.578;2022-07-03T10:45:30;2.60;;;1.15;;
23555;SDS011;11956;53.184;8.578;2022-07-03T10:51:58;1.70;;;0.93;;
23555;SDS011;11956;53.184;8.578;2022-07-03T10:58:09;1.90;;;0.80;;
23555;SDS011;11956;53.184;8.578;2022-07-03T11:01:10;1.13;;;0.70;;
23555;SDS011;11956;53.184;8.578;2022-07-03T11:04:26;3.08;;;0.90;;
23555;SDS011;11956;53.184;8.578;2022-07-03T11:10:49;2.47;;;0.70;;
23555;SDS011;11956;53.184;8.578;2022-07-03T11:14:23;2.72;;;0.80;;
23555;SDS011;11956;53.184;8.578;2022-07-03T11:17:29;3.50;;;0.80;;
23555;SDS011;11956;53.184;8.578;2022-07-03T11:20:30;9.63;;;1.30;;
23555;SDS011;11956;53.184;8.578;2022-07-03T11:27:11;4.65;;;0.70;;
23555;SDS011;11956;53.184;8.578;2022-07-03T11:33:14;4.40;;;0.85;;
23555;SDS011;11956;53.184;8.578;2022-07-03T11:36:45;8.13;;;0.70;;
23555;SDS011;11956;53.184;8.578;2022-07-03T11:39:47;3.90;;;0.70;;
23555;SDS011;11956;53.184;8.578;2022-07-03T11:42:53;2.78;;;1.05;;
23555;SDS011;11956;53.184;8.578;2022-07-03T11:45:55;2.47;;;0.70;;
23555;SDS011;11956;53.184;8.578;2022-07-03T11:49:04;3.72;;;0.80;;
23555;SDS011;11956;53.184;8.578;2022-07-03T11:52:12;5.47;;;1.48;;
23555;SDS011;11956;53.184;8.578;2022-07-03T11:55:12;2.30;;;0.60;;
23555;SDS011;11956;53.184;8.578;2022-07-03T11:58:13;2.35;;;0.65;;
23555;SDS011;11956;53.184;8.578;2022-07-03T12:04:28;2.15;;;0.70;;
23555;SDS011;11956;53.184;8.578;2022-07-03T12:07:28;2.05;;;0.60;;
23555;SDS011;11956;53.184;8.578;2022-07-03T12:10:36;3.13;;;0.70;;
23555;SDS011;11956;53.184;8.578;2022-07-03T12:13:41;1.92;;;0.70;;
23555;SDS011;11956;53.184;8.578;2022-07-03T12:16:43;3.38;;;0.90;;
23555;SDS011;11956;53.184;8.578;2022-07-03T12:19:54;3.47;;;0.73;;
23555;SDS011;11956;53.184;8.578;2022-07-03T12:22:57;1.53;;;0.60;;
23555;SDS011;11956;53.184;8.578;2022-07-03T12:25:58;3.17;;;0.90;;
23555;SDS011;11956;53.184;8.578;2022-07-03T12:28:59;3.42;;;0.65;;
23555;SDS011;11956;53.184;8.578;2022-07-03T12:32:07;3.05;;;0.80;;
23555;SDS011;11956;53.184;8.578;2022-07-03T12:35:10;2.15;;;0.70;;
23555;SDS011;11956;53.184;8.578;2022-07-03T12:38:11;2.03;;;0.85;;
23555;SDS011;11956;53.184;8.578;2022-07-03T12:41:29;2.72;;;0.73;;
23555;SDS011;11956;53.184;8.578;2022-07-03T12:44:30;2.38;;;0.70;;
23555;SDS011;11956;53.184;8.578;2022-07-03T12:47:31;3.10;;;1.10;;
23555;SDS011;11956;53.184;8.578;2022-07-03T12:50:45;2.17;;;0.70;;
23555;SDS011;11956;53.184;8.578;2022-07-03T12:53:54;2.33;;;0.70;;
23555;SDS011;11956;53.184;8.578;2022-07-03T12:57:28;2.00;;;0.80;;
23555;SDS011;11956;53.184;8.578;2022-07-03T13:00:42;1.27;;;0.50;;
23555;SDS011;11956;53.184;8.578;2022-07-03T13:03:44;2.40;;;0.50;;
23555;SDS011;11956;53.184;8.578;2022-07-03T13:06:58;2.35;;;0.63;;
23555;SDS011;11956;53.184;8.578;2022-07-03T13:10:05;2.13;;;0.82;;
23555;SDS011;11956;53.184;8.578;2022-07-03T13:13:06;2.85;;;0.70;;
23555;SDS011;11956;53.184;8.578;2022-07-03T13:16:23;2.40;;;0.63;;
23555;SDS011;11956;53.184;8.578;2022-07-03T13:19:27;3.00;;;0.60;;
23555;SDS011;11956;53.184;8.578;2022-07-03T13:22:29;2.22;;;0.75;;
23555;SDS011;11956;53.184;8.578;2022-07-03T13:25:30;2.00;;;0.70;;
23555;SDS011;11956;53.184;8.578;2022-07-03T13:28:34;4.00;;;0.70;;
23555;SDS011;11956;53.184;8.578;2022-07-03T13:31:35;2.78;;;0.90;;
23555;SDS011;11956;53.184;8.578;2022-07-03T13:34:36;2.63;;;1.10;;
23555;SDS011;11956;53.184;8.578;2022-07-03T13:37:37;2.58;;;0.95;;
23555;SDS011;11956;53.184;8.578;2022-07-03T13:40:38;3.47;;;1.20;;
23555;SDS011;11956;53.184;8.578;2022-07-03T13:43:39;3.83;;;1.80;;
23555;SDS011;11956;53.184;8.578;2022-07-03T13:46:40;4.93;;;1.50;;
23555;SDS011;11956;53.184;8.578;2022-07-03T13:49:41;4.97;;;1.40;;
23555;SDS011;11956;53.184;8.578;2022-07-03T13:52:42;5.95;;;2.13;;
23555;SDS011;11956;53.184;8.578;2022-07-03T13:55:43;2.33;;;1.27;;
23555;SDS011;11956;53.184;8.578;2022-07-03T13:58:44;1.98;;;1.17;;
23555;SDS011;11956;53.184;8.578;2022-07-03T14:01:46;3.97;;;1.30;;
23555;SDS011;11956;53.184;8.578;2022-07-03T14:04:47;3.65;;;1.90;;
23555;SDS011;11956;53.184;8.578;2022-07-03T14:07:48;3.70;;;1.70;;
23555;SDS011;11956;53.184;8.578;2022-07-03T14:10:49;3.35;;;2.13;;
23555;SDS011;11956;53.184;8.578;2022-07-03T14:13:50;7.82;;;3.15;;
23555;SDS011;11956;53.184;8.578;2022-07-03T14:16:51;4.65;;;1.60;;
23555;SDS011;11956;53.184;8.578;2022-07-03T14:19:52;4.25;;;1.20;;
23555;SDS011;11956;53.184;8.578;2022-07-03T14:22:53;3.67;;;1.00;;
23555;SDS011;11956;53.184;8.578;2022-07-03T14:25:54;3.05;;;1.00;;
23555;SDS011;11956;53.184;8.578;2022-07-03T14:28:55;3.40;;;1.10;;
23555;SDS011;11956;53.184;8.578;2022-07-03T14:32:14;3.10;;;0.98;;
23555;SDS011;11956;53.184;8.578;2022-07-03T14:35:31;5.05;;;1.00;;
23555;SDS011;11956;53.184;8.578;2022-07-03T14:38:32;3.95;;;1.15;;
23555;SDS011;11956;53.184;8.578;2022-07-03T14:41:33;4.05;;;1.00;;
23555;SDS011;11956;53.184;8.578;2022-07-03T14:44:34;3.28;;;1.00;;
23555;SDS011;11956;53.184;8.578;2022-07-03T14:47:35;3.42;;;1.13;;
23555;SDS011;11956;53.184;8.578;2022-07-03T14:50:36;3.28;;;0.98;;
23555;SDS011;11956;53.184;8.578;2022-07-03T14:53:37;3.67;;;1.30;;
23555;SDS011;11956;53.184;8.578;2022-07-03T14:56:41;3.97;;;1.20;;
23555;SDS011;11956;53.184;8.578;2022-07-03T15:03:15;3.38;;;0.90;;
23555;SDS011;11956;53.184;8.578;2022-07-03T15:06:27;3.53;;;1.10;;
23555;SDS011;11956;53.184;8.578;2022-07-03T15:09:31;3.47;;;1.10;;
23555;SDS011;11956;53.184;8.578;2022-07-03T15:12:40;4.78;;;1.10;;
23555;SDS011;11956;53.184;8.578;2022-07-03T15:15:51;3.00;;;1.02;;
23555;SDS011;11956;53.184;8.578;2022-07-03T15:18:52;2.60;;;0.88;;
23555;SDS011;11956;53.184;8.578;2022-07-03T15:21:53;4.18;;;0.80;;
23555;SDS011;11956;53.184;8.578;2022-07-03T15:24:54;4.13;;;1.10;;
23555;SDS011;11956;53.184;8.578;2022-07-03T15:27:56;3.15;;;0.80;;
23555;SDS011;11956;53.184;8.578;2022-07-03T15:30:58;4.45;;;1.08;;
23555;SDS011;11956;53.184;8.578;2022-07-03T15:34:03;3.25;;;0.80;;
23555;SDS011;11956;53.184;8.578;2022-07-03T15:54:51;2.53;;;1.02;;
23555;SDS011;11956;53.184;8.578;2022-07-03T15:58:03;5.78;;;1.20;;
23555;SDS011;11956;53.184;8.578;2022-07-03T16:01:08;4.35;;;1.35;;
23555;SDS011;11956;53.184;8.578;2022-07-03T16:04:29;4.85;;;1.20;;
23555;SDS011;11956;53.184;8.578;2022-07-03T16:07:59;3.75;;;1.38;;
23555;SDS011;11956;53.184;8.578;2022-07-03T16:11:04;4.38;;;0.90;;
23555;SDS011;11956;53.184;8.578;2022-07-03T16:14:06;5.43;;;1.05;;
23555;SDS011;11956;53.184;8.578;2022-07-03T16:17:07;2.83;;;1.00;;
23555;SDS011;11956;53.184;8.578;2022-07-03T16:20:08;3.42;;;1.05;;
23555;SDS011;11956;53.184;8.578;2022-07-03T16:23:11;2.70;;;1.23;;
23555;SDS011;11956;53.184;8.578;2022-07-03T16:29:14;5.00;;;0.90;;
23555;SDS011;11956;53.184;8.578;2022-07-03T16:32:19;3.63;;;0.70;;
23555;SDS011;11956;53.184;8.578;2022-07-03T16:35:50;2.85;;;1.02;;
23555;SDS011;11956;53.184;8.578;2022-07-03T16:38:59;4.75;;;1.20;;
23555;SDS011;11956;53.184;8.578;2022-07-03T16:42:05;3.22;;;0.90;;
23555;SDS011;11956;53.184;8.578;2022-07-03T16:45:08;5.72;;;1.13;;
23555;SDS011;11956;53.184;8.578;2022-07-03T16:48:11;3.17;;;1.10;;
23555;SDS011;11956;53.184;8.578;2022-07-03T16:51:34;3.97;;;1.20;;
23555;SDS011;11956;53.184;8.578;2022-07-03T16:54:35;5.60;;;1.40;;
23555;SDS011;11956;53.184;8.578;2022-07-03T16:57:42;2.35;;;0.93;;
23555;SDS011;11956;53.184;8.578;2022-07-03T17:00:49;4.35;;;0.93;;
23555;SDS011;11956;53.184;8.578;2022-07-03T17:03:52;1.70;;;0.80;;
23555;SDS011;11956;53.184;8.578;2022-07-03T17:06:56;3.70;;;0.70;;
23555;SDS011;11956;53.184;8.578;2022-07-03T17:09:57;2.97;;;0.70;;
23555;SDS011;11956;53.184;8.578;2022-07-03T17:12:59;2.83;;;0.77;;
23555;SDS011;11956;53.184;8.578;2022-07-03T17:16:01;3.45;;;0.90;;
23555;SDS011;11956;53.184;8.578;2022-07-03T17:19:03;3.97;;;1.00;;
23555;SDS011;11956;53.184;8.578;2022-07-03T17:22:07;4.80;;;0.95;;
23555;SDS011;11956;53.184;8.578;2022-07-03T17:25:12;4.68;;;0.80;;
23555;SDS011;11956;53.184;8.578;2022-07-03T17:28:23;2.75;;;0.80;;
23555;SDS011;11956;53.184;8.578;2022-07-03T17:31:26;2.78;;;0.82;;
23555;SDS011;11956;53.184;8.578;2022-07-03T17:34:35;1.95;;;0.65;;
23555;SDS011;11956;53.184;8.578;2022-07-03T17:37:36;5.38;;;0.70;;
23555;SDS011;11956;53.184;8.578;2022-07-03T17:40:39;3.85;;;0.75;;
23555;SDS011;11956;53.184;8.578;2022-07-03T17:43:44;2.10;;;0.85;;
23555;SDS011;11956;53.184;8.578;2022-07-03T17:46:49;4.57;;;0.77;;
23555;SDS011;11956;53.184;8.578;2022-07-03T17:49:51;1.98;;;0.60;;
23555;SDS011;11956;53.184;8.578;2022-07-03T17:52:56;1.35;;;0.22;;
23555;SDS011;11956;53.184;8.578;2022-07-03T17:55:58;0.97;;;0.30;;
23555;SDS011;11956;53.184;8.578;2022-07-03T17:59:02;1.03;;;0.20;;
23555;SDS011;11956;53.184;8.578;2022-07-03T18:02:04;0.77;;;0.30;;
23555;SDS011;11956;53.184;8.578;2022-07-03T18:05:05;0.57;;;0.28;;
23555;SDS011;11956;53.184;8.578;2022-07-03T18:08:12;0.25;;;0.20;;
23555;SDS011;11956;53.184;8.578;2022-07-03T18:17:48;2.15;;;0.40;;
23555;SDS011;11956;53.184;8.578;2022-07-03T18:20:53;1.42;;;0.40;;
23555;SDS011;11956;53.184;8.578;2022-07-03T18:23:54;1.58;;;0.40;;
23555;SDS011;11956;53.184;8.578;2022-07-03T18:26:58;1.57;;;0.60;;
23555;SDS011;11956;53.184;8.578;2022-07-03T18:30:07;0.60;;;0.32;;
23555;SDS011;11956;53.184;8.578;2022-07-03T18:33:10;1.67;;;0.60;;
23555;SDS011;11956;53.184;8.578;2022-07-03T18:36:15;3.10;;;0.60;;
23555;SDS011;11956;53.184;8.578;2022-07-03T18:39:17;2.42;;;0.50;;
23555;SDS011;11956;53.184;8.578;2022-07-03T18:42:19;2.17;;;0.40;;
23555;SDS011;11956;53.184;8.578;2022-07-03T18:45:20;2.42;;;0.77;;
23555;SDS011;11956;53.184;8.578;2022-07-03T18:48:21;2.72;;;0.70;;
23555;SDS011;11956;53.184;8.578;2022-07-03T18:51:29;1.02;;;0.70;;
23555;SDS011;11956;53.184;8.578;2022-07-03T19:01:32;2.38;;;0.70;;
23555;SDS011;11956;53.184;8.578;2022-07-03T19:04:45;3.00;;;0.80;;
23555;SDS011;11956;53.184;8.578;2022-07-03T19:08:09;1.63;;;0.63;;
23555;SDS011;11956;53.184;8.578;2022-07-03T19:11:17;2.47;;;0.60;;
23555;SDS011;11956;53.184;8.578;2022-07-03T19:14:22;4.35;;;1.10;;
23555;SDS011;11956;53.184;8.578;2022-07-03T19:17:31;3.00;;;0.73;;
23555;SDS011;11956;53.184;8.578;2022-07-03T19:20:35;4.63;;;0.80;;
23555;SDS011;11956;53.184;8.578;2022-07-03T19:23:36;5.50;;;1.25;;
23555;SDS011;11956;53.184;8.578;2022-07-03T19:26:37;3.15;;;0.70;;
23555;SDS011;11956;53.184;8.578;2022-07-03T19:29:41;3.53;;;0.85;;
23555;SDS011;11956;53.184;8.578;2022-07-03T19:32:43;2.53;;;0.90;;
23555;SDS011;11956;53.184;8.578;2022-07-03T19:35:45;3.33;;;1.10;;
23555;SDS011;11956;53.184;8.578;2022-07-03T19:38:47;2.85;;;1.08;;
23555;SDS011;11956;53.184;8.578;2022-07-03T19:41:49;3.08;;;1.00;;
23555;SDS011;11956;53.184;8.578;2022-07-03T19:44:50;2.97;;;1.40;;
23555;SDS011;11956;53.184;8.578;2022-07-03T19:47:51;1.33;;;0.80;;
23555;SDS011;11956;53.184;8.578;2022-07-03T19:50:52;1.70;;;1.02;;
23555;SDS011;11956;53.184;8.578;2022-07-03T19:53:53;3.88;;;1.20;;
23555;SDS011;11956;53.184;8.578;2022-07-03T19:56:54;1.77;;;0.90;;
23555;SDS011;11956;53.184;8.578;2022-07-03T19:59:55;1.60;;;0.82;;
23555;SDS011;11956;53.184;8.578;2022-07-03T20:02:56;5.60;;;1.58;;
23555;SDS011;11956;53.184;8.578;2022-07-03T20:05:58;2.13;;;1.05;;
23555;SDS011;11956;53.184;8.578;2022-07-03T20:09:00;1.05;;;0.90;;
23555;SDS011;11956;53.184;8.578;2022-07-03T20:12:01;3.60;;;1.20;;
23555;SDS011;11956;53.184;8.578;2022-07-03T20:15:03;2.40;;;1.23;;
23555;SDS011;11956;53.184;8.578;2022-07-03T20:18:06;3.90;;;1.33;;
23555;SDS011;11956;53.184;8.578;2022-07-03T20:21:07;2.03;;;1.10;;
23555;SDS011;11956;53.184;8.578;2022-07-03T20:24:08;1.77;;;1.30;;